Current | Forecast
Updated: 7:00 AM JST on November 22, 2017
Observed at Aomori Airport, Japan
Temperature 36°F
Windchill 28°F
Humidity 75%
Dew Point 28°F
Wind SSW at 10 mph
Pressure 30.12 in (Falling)
Conditions Partly Cloudy
Visibility 6.2 miles
UV 0 out of 16
Clouds (FEW) : 3000 ft
Yesterday's Maximum 34°F
Yesterday's Minimum 28°F approx.
Yesterday's Heating Degree Days 34 approx.
Sunrise6:30 AM JST
Sunset4:11 PM JST
Moon Rise9:20 AM JST
Moon Set7:10 PM JST
Moon PhaseMoon Phase
Waxing Crescent
Raw METARMETAR RJSA 212200Z 20009KT 9999 FEW030 02/M02 Q1020


Monday
. High: 61° F.
Tuesday
. High: 62° F.
Wednesday
. High: 59° F.
Thursday
. High: 59° F.
Friday
. High: 60° F.
Saturday
. High: 60° F.
Sunday
. High: 55° F.
Monday
. High: 55° F.

Units: English | Metric

Find the Weather for any City, State or Zipcode, or Country:

U.S. State List | Severe Weather | Tropical Storms | Ski Conditions
United States | Canada | Central America | South America | Asia | Europe | Australia | Africa | Islands

Weather Underground

© Copyright 2017
The Weather Company, LLC